Time;durP1;ratioP1;P1;durP2;ratioP2;P2;SDS_P1;SDS_P2;PMS_P1;PMS_P2;Temp;Humidity;BMP_temperature;BMP_pressure;BME280_temperature;BME280_humidity;BME280_pressure;Samples;Min_cycle;Max_cycle;Signal;HPM_P1;HPM_P2
2023/01/20 00:01:47;;;;;;;4.60;2.50;;;;;;;5.54;100.00;96419.17;110413;1241;70428;-72
2023/01/20 00:04:18;;;;;;;4.30;2.10;;;;;;;5.56;100.00;96417.68;110572;1241;69761;-72
2023/01/20 00:06:47;;;;;;;3.50;2.40;;;;;;;5.57;100.00;96416.06;110535;1242;69270;-72
2023/01/20 00:09:17;;;;;;;3.80;2.40;;;;;;;5.57;100.00;96414.51;110245;1241;58914;-72
2023/01/20 00:11:46;;;;;;;3.50;2.40;;;;;;;5.57;100.00;96405.67;110437;1241;58871;-72
2023/01/20 00:14:15;;;;;;;4.40;3.30;;;;;;;5.58;100.00;96400.60;110458;1242;70686;-72
2023/01/20 00:16:44;;;;;;;5.20;3.60;;;;;;;5.58;99.98;96392.80;110364;1244;70026;-72
2023/01/20 00:19:13;;;;;;;4.20;2.90;;;;;;;5.57;100.00;96394.40;110511;1241;68373;-72
2023/01/20 00:21:43;;;;;;;6.10;3.50;;;;;;;5.57;99.92;96395.79;110425;1241;58969;-72
2023/01/20 00:24:11;;;;;;;10.90;6.80;;;;;;;5.58;99.60;96392.99;110480;1242;58910;-72
2023/01/20 00:26:40;;;;;;;8.30;5.40;;;;;;;5.57;99.97;96390.12;110464;1240;70528;-71
2023/01/20 00:29:09;;;;;;;6.40;4.90;;;;;;;5.55;100.00;96386.27;110474;1241;69834;-72
2023/01/20 00:31:38;;;;;;;5.60;4.20;;;;;;;5.56;100.00;96391.45;110398;1242;68936;-72
2023/01/20 00:34:09;;;;;;;6.90;4.80;;;;;;;5.55;100.00;96394.21;110403;1241;59001;-72
2023/01/20 00:36:39;;;;;;;6.90;4.50;;;;;;;5.54;100.00;96392.38;110446;1241;58870;-72
2023/01/20 00:39:08;;;;;;;8.90;5.80;;;;;;;5.55;100.00;96390.64;110395;1242;70651;-72
2023/01/20 00:41:37;;;;;;;6.50;4.40;;;;;;;5.53;100.00;96388.48;110597;1238;69282;-72
2023/01/20 00:44:06;;;;;;;8.50;5.50;;;;;;;5.52;100.00;96389.94;110568;1241;68697;-72
2023/01/20 00:46:35;;;;;;;6.70;4.70;;;;;;;5.51;100.00;96395.90;110598;1238;59260;-72
2023/01/20 00:49:04;;;;;;;6.40;4.40;;;;;;;5.50;100.00;96396.16;110582;1241;58871;-72
2023/01/20 00:51:34;;;;;;;5.90;4.10;;;;;;;5.50;100.00;96398.23;110466;1242;70603;-72
2023/01/20 00:54:03;;;;;;;5.80;3.50;;;;;;;5.49;100.00;96393.79;110456;1242;69494;-71
2023/01/20 00:56:35;;;;;;;5.10;3.40;;;;;;;5.48;100.00;96389.00;110310;1242;69331;-72
2023/01/20 00:59:04;;;;;;;8.20;3.80;;;;;;;5.47;100.00;96386.48;110505;1240;58936;-72
2023/01/20 01:01:34;;;;;;;4.70;3.30;;;;;;;5.46;100.00;96385.01;110279;1241;58930;-72
2023/01/20 01:04:05;;;;;;;6.30;3.70;;;;;;;5.44;100.00;96384.25;110491;1240;69476;-72
2023/01/20 01:06:35;;;;;;;4.80;2.90;;;;;;;5.42;100.00;96384.77;110361;1242;69077;-71
2023/01/20 01:09:06;;;;;;;5.60;3.10;;;;;;;5.39;100.00;96382.42;110307;1241;69016;-72
2023/01/20 01:11:36;;;;;;;5.30;3.70;;;;;;;5.35;100.00;96370.89;110311;1242;58886;-71
2023/01/20 01:14:05;;;;;;;4.80;3.00;;;;;;;5.31;100.00;96365.95;110494;1240;58861;-70
2023/01/20 01:16:36;;;;;;;4.60;2.60;;;;;;;5.29;100.00;96361.48;110632;1241;70855;-73
2023/01/20 01:19:06;;;;;;;6.10;3.90;;;;;;;5.26;100.00;96352.65;110593;1241;69064;-73
2023/01/20 01:21:36;;;;;;;7.80;5.30;;;;;;;5.25;100.00;96339.80;110593;1241;69289;-71
2023/01/20 01:24:07;;;;;;;10.20;7.00;;;;;;;5.22;100.00;96333.27;110015;1241;739916;-72
2023/01/20 01:26:36;;;;;;;11.70;8.40;;;;;;;5.18;100.00;96325.45;110535;1240;58825;-72
2023/01/20 01:29:07;;;;;;;11.20;9.00;;;;;;;5.17;100.00;96324.52;110364;1242;69793;-71
2023/01/20 01:31:37;;;;;;;;;;;;;;;5.14;100.00;96322.27;110347;1242;69208;-71
2023/01/20 01:34:08;;;;;;;9.40;7.20;;;;;;;5.13;100.00;96325.23;110343;1242;69091;-71
2023/01/20 01:36:37;;;;;;;8.70;5.90;;;;;;;5.14;100.00;96321.95;110475;1240;58857;-72
2023/01/20 01:39:07;;;;;;;7.50;5.90;;;;;;;5.13;100.00;96324.90;110412;1238;58922;-71
2023/01/20 01:41:37;;;;;;;6.40;4.70;;;;;;;5.13;100.00;96319.40;110419;1238;70625;-71
2023/01/20 01:44:12;;;;;;;10.40;6.70;;;;;;;5.12;100.00;96314.27;110391;1242;68316;-71
2023/01/20 01:46:43;;;;;;;10.40;7.10;;;;;;;5.09;100.00;96305.33;110492;1241;69264;-71
2023/01/20 01:49:20;;;;;;;11.50;7.10;;;;;;;5.07;100.00;96297.18;110628;1238;58924;-71
2023/01/20 01:51:58;;;;;;;10.20;7.80;;;;;;;5.03;100.00;96299.34;110477;1241;58919;-70
2023/01/20 01:54:35;;;;;;;9.50;6.70;;;;;;;5.00;100.00;96299.72;110565;1246;70973;-72
2023/01/20 01:57:07;;;;;;;12.40;6.90;;;;;;;4.97;100.00;96298.16;110427;1241;69237;-72
2023/01/20 01:59:38;;;;;;;10.20;6.40;;;;;;;4.95;100.00;96303.84;110546;1241;68497;-72
2023/01/20 02:02:08;;;;;;;11.70;7.20;;;;;;;4.93;100.00;96302.61;110272;1244;58978;-71
2023/01/20 02:04:40;;;;;;;10.60;7.10;;;;;;;4.91;100.00;96297.89;110546;1242;58973;-72
2023/01/20 02:07:16;;;;;;;11.20;7.10;;;;;;;4.89;100.00;96301.85;110537;1238;69673;-71
2023/01/20 02:09:46;;;;;;;9.60;7.40;;;;;;;4.90;100.00;96306.12;110448;1242;69824;-72
2023/01/20 02:12:19;;;;;;;10.80;7.40;;;;;;;4.91;100.00;96306.77;110232;1241;69266;-71
2023/01/20 02:14:56;;;;;;;10.90;7.40;;;;;;;4.91;100.00;96303.66;110441;1241;58880;-72
2023/01/20 02:17:35;;;;;;;8.50;5.90;;;;;;;4.91;100.00;96306.59;110260;1242;58885;-72
2023/01/20 02:20:51;;;;;;;7.30;5.20;;;;;;;4.92;100.00;96309.73;110391;1242;70809;-72
2023/01/20 02:23:34;;;;;;;8.30;5.40;;;;;;;4.95;100.00;96307.69;110625;1240;69277;-74
2023/01/20 02:26:37;;;;;;;8.00;5.20;;;;;;;4.96;100.00;96308.65;110317;1241;69656;-72
2023/01/20 02:29:15;;;;;;;8.90;5.70;;;;;;;4.97;100.00;96318.02;110714;1239;58870;-73
2023/01/20 02:32:05;;;;;;;7.60;4.50;;;;;;;4.98;100.00;96324.70;110593;1241;58860;-72
2023/01/20 02:34:58;;;;;;;9.70;5.50;;;;;;;4.99;100.00;96319.45;110465;1241;69712;-73
2023/01/20 02:37:44;;;;;;;7.60;5.30;;;;;;;5.01;100.00;96313.15;110534;1240;68433;-72
2023/01/20 02:40:19;;;;;;;7.10;5.70;;;;;;;5.01;100.00;96302.92;110330;1245;69336;-72
2023/01/20 02:43:08;;;;;;;7.60;5.10;;;;;;;5.03;100.00;96305.02;110459;1241;58934;-73
2023/01/20 02:45:50;;;;;;;6.90;4.70;;;;;;;5.03;100.00;96306.38;110600;1242;58877;-72
2023/01/20 02:48:26;;;;;;;7.80;5.20;;;;;;;5.03;100.00;96310.02;110320;1244;70561;-72
2023/01/20 02:51:08;;;;;;;8.60;5.20;;;;;;;5.04;100.00;96300.48;110544;1241;69271;-73
2023/01/20 02:53:50;;;;;;;5.90;4.50;;;;;;;5.05;100.00;96301.65;110321;1244;69279;-73
2023/01/20 02:56:24;;;;;;;7.40;5.70;;;;;;;5.06;100.00;96293.79;110555;1242;58868;-72
2023/01/20 02:59:12;;;;;;;7.20;5.40;;;;;;;5.07;100.00;96293.52;110624;1242;58880;-72
2023/01/20 03:01:53;;;;;;;8.70;5.80;;;;;;;5.08;100.00;96286.39;110592;1242;69844;-73
2023/01/20 03:04:29;;;;;;;7.50;5.40;;;;;;;5.08;100.00;96281.88;110630;1242;68246;-72
2023/01/20 03:07:02;;;;;;;6.90;4.30;;;;;;;5.09;100.00;96290.95;110430;1241;69186;-73
2023/01/20 03:09:40;;;;;;;6.50;4.10;;;;;;;5.10;100.00;96294.50;110659;1242;58857;-73
2023/01/20 03:12:47;;;;;;;6.20;4.00;;;;;;;5.13;100.00;96296.42;110677;1242;58871;-73
2023/01/20 03:15:23;;;;;;;5.20;3.70;;;;;;;5.16;100.00;96294.16;109701;1248;70607;-71
2023/01/20 03:17:52;;;;;;;4.90;3.60;;;;;;;5.16;100.00;96284.96;110551;1239;69229;-72
2023/01/20 03:20:21;;;;;;;5.10;3.50;;;;;;;5.19;100.00;96286.36;110451;1241;68569;-72
2023/01/20 03:22:51;;;;;;;4.60;3.50;;;;;;;5.21;100.00;96281.91;110593;1242;58891;-73
2023/01/20 03:25:22;;;;;;;4.60;3.30;;;;;;;5.23;100.00;96278.64;110591;1241;58824;-72
2023/01/20 03:27:50;;;;;;;4.50;3.00;;;;;;;5.26;100.00;96271.30;110654;1240;70568;-72
2023/01/20 03:30:20;;;;;;;4.80;3.10;;;;;;;5.29;100.00;96267.02;110704;1241;69088;-72
2023/01/20 03:32:52;;;;;;;4.70;2.60;;;;;;;5.29;100.00;96266.60;110686;1245;69896;-73
2023/01/20 03:35:22;;;;;;;4.30;2.20;;;;;;;5.32;100.00;96269.20;110495;1241;58875;-73
2023/01/20 03:37:51;;;;;;;3.50;2.20;;;;;;;5.34;100.00;96272.65;110604;1241;58872;-72
2023/01/20 03:40:28;;;;;;;5.10;3.40;;;;;;;5.37;100.00;96272.64;110562;1242;70979;-73
2023/01/20 03:43:15;;;;;;;4.10;2.60;;;;;;;5.38;100.00;96267.55;110563;1240;69056;-72
2023/01/20 03:46:05;;;;;;;3.90;2.70;;;;;;;5.38;100.00;96252.23;110503;1241;69218;-72
2023/01/20 03:48:43;;;;;;;4.00;2.40;;;;;;;5.38;100.00;96232.36;110477;1239;58897;-71
2023/01/20 03:51:28;;;;;;;2.90;1.80;;;;;;;5.36;100.00;96237.30;110338;1241;58855;-73
2023/01/20 03:54:21;;;;;;;3.00;1.50;;;;;;;5.36;100.00;96245.73;110378;1240;70592;-72
2023/01/20 03:57:03;;;;;;;3.30;2.70;;;;;;;5.38;100.00;96240.79;110582;1238;69222;-73
2023/01/20 03:59:39;;;;;;;6.30;3.30;;;;;;;5.38;100.00;96236.48;110653;1241;69725;-73
2023/01/20 04:02:11;;;;;;;4.70;2.40;;;;;;;5.38;100.00;96232.69;110524;1238;58960;-70
2023/01/20 04:04:46;;;;;;;3.00;1.90;;;;;;;5.39;100.00;96227.39;110538;1238;58966;-72
2023/01/20 04:07:24;;;;;;;3.20;1.90;;;;;;;5.41;100.00;96223.32;110498;1241;69850;-72
2023/01/20 04:10:00;;;;;;;2.30;1.50;;;;;;;5.43;100.00;96218.81;110444;1241;69008;-71
2023/01/20 04:12:29;;;;;;;2.80;1.40;;;;;;;5.46;100.00;96220.36;110625;1241;68218;-71
2023/01/20 04:15:00;;;;;;;2.30;1.30;;;;;;;5.49;100.00;96221.69;110391;1240;58876;-72
2023/01/20 04:17:30;;;;;;;3.50;1.70;;;;;;;5.50;100.00;96224.89;110489;1240;58937;-72
2023/01/20 04:20:05;;;;;;;4.50;2.60;;;;;;;5.52;100.00;96228.89;110668;1241;70549;-72
2023/01/20 04:22:40;;;;;;;4.70;3.30;;;;;;;5.51;100.00;96228.07;110637;1241;69824;-72
2023/01/20 04:25:30;;;;;;;4.10;2.70;;;;;;;5.49;100.00;96219.07;110607;1242;68522;-72
2023/01/20 04:27:59;;;;;;;2.80;2.00;;;;;;;5.49;100.00;96213.21;110583;1240;58889;-72
2023/01/20 04:30:29;;;;;;;4.00;2.20;;;;;;;5.49;100.00;96202.29;110543;1241;58869;-72
2023/01/20 04:32:58;;;;;;;3.20;2.40;;;;;;;5.49;100.00;96196.58;110469;1238;70543;-72
2023/01/20 04:35:27;;;;;;;3.60;2.60;;;;;;;5.49;100.00;96185.71;110667;1240;69120;-72
2023/01/20 04:37:56;;;;;;;6.90;3.20;;;;;;;5.47;100.00;96180.69;110582;1238;69461;-72
2023/01/20 04:40:26;;;;;;;5.70;3.40;;;;;;;5.43;100.00;96183.70;110703;1241;58949;-72
2023/01/20 04:42:56;;;;;;;5.70;2.90;;;;;;;5.40;100.00;96186.88;110631;1242;58861;-72
2023/01/20 04:45:24;;;;;;;3.80;3.00;;;;;;;5.37;100.00;96183.52;110578;1240;69842;-72
2023/01/20 04:47:53;;;;;;;6.20;3.40;;;;;;;5.32;100.00;96189.51;110470;1240;68575;-72
2023/01/20 04:50:22;;;;;;;5.30;3.30;;;;;;;5.30;100.00;96195.70;110557;1242;69178;-72
2023/01/20 04:52:55;;;;;;;4.70;3.60;;;;;;;5.30;100.00;96193.64;110564;1241;58926;-72
2023/01/20 04:55:25;;;;;;;7.20;4.70;;;;;;;5.30;100.00;96182.29;110561;1241;58792;-72
2023/01/20 04:57:55;;;;;;;7.80;5.40;;;;;;;5.27;100.00;96174.71;110631;1240;70390;-72
2023/01/20 05:00:27;;;;;;;6.50;4.70;;;;;;;5.25;100.00;96185.73;110281;1241;68400;-72
2023/01/20 05:02:57;;;;;;;10.10;6.10;;;;;;;5.22;100.00;96185.25;110486;1245;70215;-72
2023/01/20 05:05:26;;;;;;;;;;;;;;;5.18;100.00;96170.15;110725;1241;58937;-72
2023/01/20 05:07:56;;;;;;;9.00;6.10;;;;;;;5.17;100.00;96179.89;110630;1240;58820;-72
2023/01/20 05:10:25;;;;;;;8.70;6.40;;;;;;;5.19;100.00;96188.08;110669;1238;71450;-72
2023/01/20 05:12:54;;;;;;;6.40;4.90;;;;;;;5.21;100.00;96184.42;110508;1241;69169;-72
2023/01/20 05:15:23;;;;;;;7.10;5.40;;;;;;;5.23;100.00;96191.40;110600;1239;69895;-72
2023/01/20 05:17:52;;;;;;;7.50;5.50;;;;;;;5.24;100.00;96198.73;110470;1241;58905;-72
2023/01/20 05:20:21;;;;;;;9.30;6.40;;;;;;;5.25;100.00;96188.86;110568;1239;58921;-72
2023/01/20 05:22:50;;;;;;;7.20;5.40;;;;;;;5.24;100.00;96178.74;110544;1241;70576;-72
2023/01/20 05:25:20;;;;;;;7.50;5.80;;;;;;;5.21;100.00;96174.11;110649;1241;69254;-72
2023/01/20 05:27:49;;;;;;;;;;;;;;;5.19;100.00;96174.29;110710;1241;68724;-72
2023/01/20 05:30:19;;;;;;;9.50;7.10;;;;;;;5.16;100.00;96182.72;110729;1241;58934;-73
2023/01/20 05:32:49;;;;;;;9.20;7.40;;;;;;;5.14;100.00;96185.63;110731;1241;58937;-72
2023/01/20 05:35:19;;;;;;;8.60;7.40;;;;;;;5.09;100.00;96175.28;110715;1241;70729;-72
2023/01/20 05:37:51;;;;;;;10.20;8.20;;;;;;;5.07;100.00;96168.19;110688;1242;68822;-72
2023/01/20 05:40:20;;;;;;;10.50;8.00;;;;;;;5.02;100.00;96162.46;110598;1242;68507;-72
2023/01/20 05:42:49;;;;;;;11.10;7.50;;;;;;;5.00;100.00;96163.86;110660;1241;58899;-72
2023/01/20 05:45:18;;;;;;;8.50;6.00;;;;;;;4.99;100.00;96164.23;110726;1238;58876;-72
2023/01/20 05:47:47;;;;;;;7.50;5.70;;;;;;;5.00;100.00;96164.17;110739;1240;71153;-72
2023/01/20 05:50:16;;;;;;;7.30;5.60;;;;;;;5.02;100.00;96163.48;110680;1242;69035;-72
2023/01/20 05:52:45;;;;;;;9.30;6.40;;;;;;;5.05;100.00;96169.33;110646;1240;69345;-73
2023/01/20 05:55:16;;;;;;;10.70;7.40;;;;;;;5.06;100.00;96166.29;110716;1240;58889;-71
2023/01/20 05:57:46;;;;;;;8.90;7.50;;;;;;;5.07;100.00;96166.09;110597;1241;58890;-71
2023/01/20 06:00:17;;;;;;;9.90;6.90;;;;;;;5.06;100.00;96160.27;110609;1241;70718;-71
2023/01/20 06:02:46;;;;;;;8.30;6.60;;;;;;;5.06;100.00;96162.35;110591;1241;69840;-71
2023/01/20 06:05:16;;;;;;;10.00;7.60;;;;;;;5.04;100.00;96161.61;110588;1240;70238;-71
2023/01/20 06:07:45;;;;;;;8.70;6.50;;;;;;;5.03;100.00;96150.84;110507;1241;58889;-72
2023/01/20 06:10:15;;;;;;;8.70;7.00;;;;;;;4.99;100.00;96153.33;110550;1241;58937;-71
2023/01/20 06:12:52;;;;;;;10.30;7.70;;;;;;;4.95;100.00;96145.34;110545;1241;70020;-71
2023/01/20 06:15:22;;;;;;;12.50;8.60;;;;;;;4.87;100.00;96138.13;110468;1241;68478;-72
2023/01/20 06:17:54;;;;;;;12.10;8.90;;;;;;;4.82;100.00;96140.38;110750;1242;68196;-71
2023/01/20 06:20:23;;;;;;;13.90;10.10;;;;;;;4.78;100.00;96141.38;110678;1241;58866;-72
2023/01/20 06:22:55;;;;;;;16.40;9.80;;;;;;;4.75;100.00;96137.09;110728;1242;58872;-73
2023/01/20 06:25:24;;;;;;;11.70;9.10;;;;;;;4.73;100.00;96140.34;110726;1238;70574;-72
2023/01/20 06:27:53;;;;;;;13.70;10.20;;;;;;;4.71;100.00;96141.50;110423;1238;69799;-72
2023/01/20 06:30:22;;;;;;;14.50;9.60;;;;;;;4.69;100.00;96138.02;110623;1241;69330;-72
2023/01/20 06:32:53;;;;;;;9.70;7.80;;;;;;;4.67;100.00;96147.49;110699;1242;58863;-72
2023/01/20 06:35:23;;;;;;;10.60;9.20;;;;;;;4.67;100.00;96151.29;110718;1240;58944;-73
2023/01/20 06:37:52;;;;;;;13.70;9.80;;;;;;;4.67;100.00;96154.88;110739;1240;71161;-72
2023/01/20 06:40:23;;;;;;;12.40;9.30;;;;;;;4.70;100.00;96152.97;110579;1242;69646;-73
2023/01/20 06:42:56;;;;;;;12.90;9.30;;;;;;;4.73;100.00;96152.58;110726;1240;69236;-72
2023/01/20 06:45:25;;;;;;;13.70;9.20;;;;;;;4.75;100.00;96157.08;110661;1240;58899;-72
2023/01/20 06:47:54;;;;;;;11.90;8.70;;;;;;;4.79;100.00;96169.44;110668;1241;58823;-73
2023/01/20 06:50:23;;;;;;;11.60;8.30;;;;;;;4.83;100.00;96169.17;110684;1242;71205;-72
2023/01/20 06:52:52;;;;;;;12.50;8.70;;;;;;;4.88;100.00;96166.59;110624;1238;69794;-72
2023/01/20 06:55:22;;;;;;;11.60;9.20;;;;;;;4.93;100.00;96169.88;110596;1241;69873;-73
2023/01/20 06:57:50;;;;;;;10.60;8.20;;;;;;;4.97;100.00;96170.94;110703;1241;58872;-72
2023/01/20 07:00:20;;;;;;;9.40;7.20;;;;;;;5.03;100.00;96170.83;110484;1242;58868;-71
2023/01/20 07:02:49;;;;;;;10.90;7.80;;;;;;;5.08;100.00;96175.86;110626;1242;69848;-72
2023/01/20 07:05:18;;;;;;;11.70;8.10;;;;;;;5.13;100.00;96180.36;110416;1242;69884;-71
2023/01/20 07:07:47;;;;;;;13.10;7.80;;;;;;;5.16;100.00;96179.77;110477;1241;69928;-73
2023/01/20 07:10:18;;;;;;;10.20;8.10;;;;;;;5.21;100.00;96186.36;110402;1240;58925;-73
2023/01/20 07:12:47;;;;;;;11.40;7.60;;;;;;;5.27;100.00;96183.70;110483;1241;58823;-71
2023/01/20 07:15:16;;;;;;;11.30;8.10;;;;;;;5.31;100.00;96190.47;110508;1240;70612;-71
2023/01/20 07:17:44;;;;;;;11.10;8.90;;;;;;;5.34;100.00;96192.69;110573;1242;70198;-72
2023/01/20 07:20:14;;;;;;;10.50;9.10;;;;;;;5.37;100.00;96192.48;110566;1241;68673;-73
2023/01/20 07:22:43;;;;;;;10.90;8.90;;;;;;;5.40;100.00;96192.76;110501;1241;58883;-73
2023/01/20 07:25:11;;;;;;;22.80;19.50;;;;;;;5.45;100.00;96187.89;110641;1238;58819;-72
2023/01/20 07:27:41;;;;;;;27.80;22.00;;;;;;;5.49;100.00;96182.09;110691;1238;70636;-72
2023/01/20 07:30:10;;;;;;;27.00;22.30;;;;;;;5.53;100.00;96171.42;110778;1241;70215;-72
2023/01/20 07:32:39;;;;;;;28.10;20.50;;;;;;;5.57;100.00;96174.96;110598;1242;68537;-71
2023/01/20 07:35:08;;;;;;;20.80;16.40;;;;;;;5.58;100.00;96186.59;110463;1241;58957;-72
2023/01/20 07:37:37;;;;;;;19.90;15.40;;;;;;;5.61;100.00;96188.65;110341;1241;58861;-72
2023/01/20 07:40:07;;;;;;;20.80;14.40;;;;;;;5.64;100.00;96182.27;110702;1241;70593;-72
2023/01/20 07:42:37;;;;;;;18.50;14.90;;;;;;;5.66;100.00;96176.77;110528;1243;69787;-72
2023/01/20 07:45:07;;;;;;;17.70;14.40;;;;;;;5.67;100.00;96173.35;110662;1242;69173;-71
2023/01/20 07:47:36;;;;;;;21.50;16.60;;;;;;;5.68;100.00;96164.83;110588;1240;58857;-70
2023/01/20 07:50:05;;;;;;;31.80;28.50;;;;;;;5.68;100.00;96159.35;110491;1241;59333;-70
2023/01/20 07:52:34;;;;;;;51.10;45.60;;;;;;;5.65;100.00;96160.55;110598;1241;70459;-71
2023/01/20 07:55:04;;;;;;;42.70;38.40;;;;;;;5.62;100.00;96156.92;110347;1242;69914;-70
2023/01/20 07:57:33;;;;;;;46.30;41.20;;;;;;;5.62;100.00;96161.45;110490;1238;69263;-71
2023/01/20 08:00:03;;;;;;;43.60;38.90;;;;;;;5.66;100.00;96161.13;110540;1241;58936;-70
2023/01/20 08:02:38;;;;;;;36.80;31.90;;;;;;;5.73;100.00;96160.16;110687;1241;58891;-71
2023/01/20 08:05:07;;;;;;;32.50;28.10;;;;;;;5.82;100.00;96157.23;110474;1240;70122;-71
2023/01/20 08:07:36;;;;;;;27.40;24.50;;;;;;;5.92;100.00;96158.58;110509;1241;69159;-71
2023/01/20 08:10:06;;;;;;;31.60;27.20;;;;;;;6.12;100.00;96155.95;110448;1242;69925;-70
2023/01/20 08:12:35;;;;;;;27.40;22.50;;;;;;;6.21;100.00;96156.10;110737;1240;58943;-72
2023/01/20 08:15:04;;;;;;;31.00;23.10;;;;;;;6.25;100.00;96158.23;110571;1241;58930;-73
2023/01/20 08:17:33;;;;;;;32.50;27.10;;;;;;;6.25;100.00;96160.80;110668;1248;70584;-72
2023/01/20 08:20:02;;;;;;;37.40;30.20;;;;;;;6.24;100.00;96158.65;110480;1242;69080;-71
2023/01/20 08:22:33;;;;;;;27.50;21.70;;;;;;;6.22;100.00;96157.07;110591;1241;69286;-72
2023/01/20 08:25:03;;;;;;;24.90;17.60;;;;;;;6.21;100.00;96163.38;110729;1242;58877;-69
2023/01/20 08:27:32;;;;;;;23.80;18.50;;;;;;;6.24;100.00;96164.83;110566;1242;58847;-71
2023/01/20 08:30:03;;;;;;;23.80;18.30;;;;;;;6.37;100.00;96154.39;110564;1242;69852;-71
2023/01/20 08:32:32;;;;;;;19.50;16.40;;;;;;;6.47;100.00;96157.75;110639;1241;68891;-71
2023/01/20 08:35:01;;;;;;;15.60;14.00;;;;;;;6.56;100.00;96163.61;110483;1241;68548;-71
2023/01/20 08:37:30;;;;;;;22.20;18.40;;;;;;;6.64;100.00;96161.98;110448;1241;58889;-71
2023/01/20 08:39:58;;;;;;;18.30;16.10;;;;;;;6.69;100.00;96169.06;110411;1242;58876;-71
2023/01/20 08:42:28;;;;;;;16.70;14.40;;;;;;;6.71;100.00;96170.11;110526;1240;70996;-70
2023/01/20 08:44:56;;;;;;;17.70;12.80;;;;;;;6.78;100.00;96170.95;110594;1242;69768;-72
2023/01/20 08:47:25;;;;;;;14.70;11.80;;;;;;;6.87;100.00;96164.58;110528;1242;69346;-71
2023/01/20 08:49:54;;;;;;;13.50;10.40;;;;;;;6.90;100.00;96158.77;110421;1242;58882;-72
2023/01/20 08:52:23;;;;;;;11.00;9.50;;;;;;;6.93;100.00;96149.90;110456;1241;58911;-72
2023/01/20 08:54:53;;;;;;;19.20;14.80;;;;;;;6.95;100.00;96144.70;110492;1241;70437;-72
2023/01/20 08:57:23;;;;;;;;;;;;;;;6.97;100.00;96133.77;110635;1242;69816;-72
2023/01/20 08:59:54;;;;;;;36.40;29.60;;;;;;;6.98;100.00;96128.05;110662;1241;68278;-71
2023/01/20 09:02:23;;;;;;;30.50;24.80;;;;;;;6.95;99.99;96128.21;110296;1245;58922;-72
2023/01/20 09:04:53;;;;;;;25.50;22.20;;;;;;;7.02;100.00;96123.92;110648;1241;58928;-72
2023/01/20 09:07:21;;;;;;;22.90;19.30;;;;;;;7.05;99.99;96122.11;110725;1241;70433;-70
2023/01/20 09:09:50;;;;;;;22.40;18.10;;;;;;;7.05;99.73;96122.58;110710;1242;69894;-70
2023/01/20 09:12:19;;;;;;;18.20;15.30;;;;;;;7.02;99.39;96130.77;110571;1242;69756;-70
2023/01/20 09:14:48;;;;;;;16.70;12.80;;;;;;;7.00;99.37;96126.09;110543;1242;58944;-71
2023/01/20 09:17:17;;;;;;;14.50;12.10;;;;;;;6.99;99.28;96121.88;110610;1242;58874;-71
2023/01/20 09:19:46;;;;;;;16.00;13.20;;;;;;;6.98;99.28;96117.79;110615;1242;70683;-71
2023/01/20 09:22:15;;;;;;;17.40;14.00;;;;;;;6.96;99.00;96112.88;110742;1241;68802;-72
2023/01/20 09:24:43;;;;;;;18.90;14.80;;;;;;;6.95;99.23;96115.95;110372;1243;69295;-72
2023/01/20 09:27:12;;;;;;;22.00;16.70;;;;;;;6.97;99.02;96107.86;110702;1240;58832;-71
2023/01/20 09:29:41;;;;;;;18.90;15.90;;;;;;;6.98;99.27;96099.59;110647;1238;58930;-71
2023/01/20 09:32:12;;;;;;;18.40;14.60;;;;;;;7.02;99.37;96096.87;110705;1238;71174;-72
2023/01/20 09:34:40;;;;;;;21.60;15.60;;;;;;;7.05;99.16;96087.90;110675;1242;69236;-71
2023/01/20 09:45:56;;;;;;;27.80;21.60;;;;;;;7.11;99.11;96079.66;110664;1241;70631;-71
2023/01/20 09:54:59;;;;;;;23.30;19.10;;;;;;;7.29;99.84;96073.18;110737;1240;58886;-71
2023/01/20 09:57:35;;;;;;;21.80;18.60;;;;;;;7.35;99.75;96065.65;110614;1242;58933;-70
2023/01/20 10:00:15;;;;;;;21.30;16.20;;;;;;;7.44;99.95;96058.14;110620;1238;69606;-71
2023/01/20 10:02:50;;;;;;;40.10;27.70;;;;;;;7.53;99.66;96056.16;110635;1241;68675;-71
2023/01/20 10:05:31;;;;;;;67.90;43.50;;;;;;;7.60;98.43;96058.04;110403;1244;69284;-70
2023/01/20 10:08:40;;;;;;;25.70;18.20;;;;;;;7.63;97.45;96050.46;110648;1243;59033;-71
2023/01/20 10:11:19;;;;;;;21.00;16.80;;;;;;;7.70;97.56;96047.35;110502;1241;58998;-73
2023/01/20 10:14:08;;;;;;;20.90;17.60;;;;;;;7.77;98.16;96043.64;110578;1238;70581;-71
2023/01/20 10:16:49;;;;;;;23.30;18.80;;;;;;;7.83;98.22;96040.67;110615;1242;69062;-71
2023/01/20 10:19:26;;;;;;;;;;;;;;;7.88;97.58;96033.17;110500;1238;68163;-71
2023/01/20 10:22:12;;;;;;;20.50;15.70;;;;;;;7.91;97.55;96033.92;110599;1238;58885;-70
2023/01/20 10:25:13;;;;;;;17.90;13.80;;;;;;;7.94;97.79;96032.32;110726;1240;58799;-71
2023/01/20 10:27:53;;;;;;;20.20;16.50;;;;;;;8.01;97.81;96031.73;110646;1241;70539;-71
2023/01/20 10:30:31;;;;;;;19.50;15.40;;;;;;;8.07;96.81;96033.11;110539;1242;69596;-71
2023/01/20 10:33:12;;;;;;;17.20;14.20;;;;;;;8.14;96.93;96036.38;110398;1242;68507;-71
2023/01/20 10:35:46;;;;;;;18.50;15.30;;;;;;;8.17;97.12;96037.44;110739;1241;58836;-70
2023/01/20 10:38:25;;;;;;;22.90;16.40;;;;;;;8.19;96.91;96038.87;110618;1242;58921;-71
2023/01/20 10:41:05;;;;;;;19.10;16.00;;;;;;;8.20;96.69;96040.54;110609;1241;70593;-71
2023/01/20 10:43:38;;;;;;;19.30;15.10;;;;;;;8.21;96.80;96037.66;110535;1242;69655;-71
2023/01/20 10:46:21;;;;;;;21.60;17.20;;;;;;;8.19;97.01;96030.05;110492;1238;68749;-71
2023/01/20 10:49:05;;;;;;;18.60;15.50;;;;;;;8.23;97.95;96015.64;110595;1239;58928;-72
2023/01/20 10:52:06;;;;;;;22.20;17.20;;;;;;;8.24;97.78;96016.94;110726;1242;58833;-70
2023/01/20 10:54:57;;;;;;;24.80;17.70;;;;;;;8.24;97.51;96024.63;110691;1241;70559;-70
2023/01/20 10:57:25;;;;;;;24.20;19.60;;;;;;;8.26;97.53;96027.86;110278;1242;70156;-72
2023/01/20 10:59:59;;;;;;;23.30;20.10;;;;;;;8.30;97.02;96029.23;110709;1241;69271;-72
2023/01/20 11:02:33;;;;;;;21.10;17.00;;;;;;;8.30;96.99;96030.14;110682;1240;58989;-70
2023/01/20 11:05:18;;;;;;;21.40;15.70;;;;;;;8.27;97.12;96023.77;110695;1240;58885;-70
2023/01/20 11:07:49;;;;;;;17.90;15.90;;;;;;;8.28;98.00;96020.38;110681;1238;69814;-70
2023/01/20 11:10:26;;;;;;;22.20;17.50;;;;;;;8.33;98.06;96020.17;110672;1240;69013;-72
2023/01/20 11:13:01;;;;;;;22.70;17.10;;;;;;;8.36;97.77;96013.33;110479;1242;69274;-72
2023/01/20 11:15:34;;;;;;;22.30;19.00;;;;;;;8.39;97.70;96008.52;110516;1241;58937;-72
2023/01/20 11:18:15;;;;;;;22.20;17.00;;;;;;;8.40;98.47;96010.90;110640;1241;58882;-72
2023/01/20 11:20:57;;;;;;;24.60;18.50;;;;;;;8.41;97.87;96011.32;110627;1243;69787;-72
2023/01/20 11:23:50;;;;;;;21.90;18.30;;;;;;;8.39;98.03;96012.55;110702;1242;68633;-72
2023/01/20 11:26:31;;;;;;;24.10;18.80;;;;;;;8.39;97.83;96011.80;110750;1240;68909;-72
2023/01/20 11:29:09;;;;;;;21.40;15.40;;;;;;;8.42;96.81;96015.41;110495;1238;58885;-72
2023/01/20 11:31:48;;;;;;;16.80;12.70;;;;;;;8.49;95.59;96011.48;110762;1242;58862;-72
2023/01/20 11:34:33;;;;;;;16.90;12.80;;;;;;;8.60;93.41;96008.47;110654;1241;71165;-71
2023/01/20 11:37:05;;;;;;;10.20;7.80;;;;;;;8.72;92.85;96010.69;110701;1242;69821;-70
2023/01/20 11:39:49;;;;;;;10.70;7.80;;;;;;;8.85;90.57;96013.23;110498;1242;69321;-70
2023/01/20 11:42:23;;;;;;;11.10;8.00;;;;;;;8.96;90.40;96011.55;110537;1241;58902;-71
2023/01/20 11:44:54;;;;;;;10.50;7.20;;;;;;;9.04;89.51;96007.17;110593;1242;58901;-72
2023/01/20 11:47:31;;;;;;;9.80;7.10;;;;;;;9.10;89.82;96008.91;110354;1242;69796;-71
2023/01/20 11:50:03;;;;;;;9.30;6.80;;;;;;;9.16;90.23;96004.39;110537;1241;69112;-71
2023/01/20 11:52:38;;;;;;;7.80;6.00;;;;;;;9.22;88.36;96003.20;110595;1240;69146;-71
2023/01/20 11:55:22;;;;;;;8.20;5.50;;;;;;;9.28;88.09;95999.98;110644;1242;58934;-71
2023/01/20 11:57:57;;;;;;;8.60;6.60;;;;;;;9.35;87.98;96002.01;110673;1242;58824;-72
2023/01/20 12:00:42;;;;;;;7.50;5.80;;;;;;;9.40;89.03;95996.52;110581;1242;70176;-72
2023/01/20 12:03:33;;;;;;;11.00;8.30;;;;;;;9.44;88.83;96000.84;110310;1242;69846;-71
2023/01/20 12:06:26;;;;;;;13.20;9.50;;;;;;;9.45;89.64;95995.15;110536;1242;69260;-71